Accueil
METAR-TAF:

METAR-TAF

Aéroports :

Aérodrome de Payerne

Payerne, Suisse

latitude: 46-49N, longitude: 006-57E, altitude: 490 m

Observation

Le bulletin a été fait il y a 27 minutes, à 18:20 UTC
Vent 5 kt de nord, variant entre nord-ouest et nord/nord-est
Température 17°C
Humidité 48%
Pression 1016 hPa
Visibilité 10 km ou plus
Nuages fragmentés à une hauteur de 9000 ft

METAR: LSMP 121820Z AUTO 35005KT 320V020 9999NDV BKN090 17/06 Q1016 RMK

Heure: 20:47 (18:47 UTC)


TAF: absent

Observations et prévisions météorologiques de plus de 4000 aéroports (messages METAR et TAF).

Les stations disponibles sont représentées par des disques jaunes et rouges sur la carte.

Passer la souris dessus pour voir le nom de la station.

Cliquer dessus pour voir les observations et prévisions météorologiques.

Pour changer de carte: cliquez sur les boutons verts avec une croix noire pour zoomer, sur le bouton vert avec un tiret pour effectuer un zoom arrière, ou sur les flèches vertes pour les cartes adjacentes.


METAR-TAF: